sensor_id;sensor_type;location;lat;lon;timestamp;P1;durP1;ratioP1;P2;durP2;ratioP2
71696;SDS011;59528;59.082;37.926;2023-02-14T00:01:42;16.27;;;9.67;;
71696;SDS011;59528;59.082;37.926;2023-02-14T00:04:28;14.20;;;10.20;;
71696;SDS011;59528;59.082;37.926;2023-02-14T00:07:14;16.10;;;9.73;;
71696;SDS011;59528;59.082;37.926;2023-02-14T00:10:00;15.83;;;10.47;;
71696;SDS011;59528;59.082;37.926;2023-02-14T00:12:45;15.80;;;10.00;;
71696;SDS011;59528;59.082;37.926;2023-02-14T00:15:32;17.23;;;11.20;;
71696;SDS011;59528;59.082;37.926;2023-02-14T00:18:18;17.57;;;11.70;;
71696;SDS011;59528;59.082;37.926;2023-02-14T00:21:03;21.20;;;12.47;;
71696;SDS011;59528;59.082;37.926;2023-02-14T00:23:49;19.93;;;13.13;;
71696;SDS011;59528;59.082;37.926;2023-02-14T00:26:35;19.10;;;13.37;;
71696;SDS011;59528;59.082;37.926;2023-02-14T00:29:24;19.60;;;12.93;;
71696;SDS011;59528;59.082;37.926;2023-02-14T00:32:10;19.80;;;13.73;;
71696;SDS011;59528;59.082;37.926;2023-02-14T00:34:56;21.70;;;13.00;;
71696;SDS011;59528;59.082;37.926;2023-02-14T00:37:41;18.33;;;12.43;;
71696;SDS011;59528;59.082;37.926;2023-02-14T00:40:27;19.67;;;12.30;;
71696;SDS011;59528;59.082;37.926;2023-02-14T00:43:16;18.57;;;12.53;;
71696;SDS011;59528;59.082;37.926;2023-02-14T00:46:02;20.70;;;13.10;;
71696;SDS011;59528;59.082;37.926;2023-02-14T00:48:48;20.83;;;12.87;;
71696;SDS011;59528;59.082;37.926;2023-02-14T00:51:34;17.63;;;12.00;;
71696;SDS011;59528;59.082;37.926;2023-02-14T00:54:20;18.63;;;12.70;;
71696;SDS011;59528;59.082;37.926;2023-02-14T00:57:06;18.90;;;13.57;;
71696;SDS011;59528;59.082;37.926;2023-02-14T00:59:52;21.00;;;13.67;;
71696;SDS011;59528;59.082;37.926;2023-02-14T01:02:39;18.37;;;13.53;;
71696;SDS011;59528;59.082;37.926;2023-02-14T01:05:26;19.63;;;13.00;;
71696;SDS011;59528;59.082;37.926;2023-02-14T01:08:12;18.53;;;12.97;;
71696;SDS011;59528;59.082;37.926;2023-02-14T01:11:06;19.27;;;13.27;;
71696;SDS011;59528;59.082;37.926;2023-02-14T01:13:53;19.47;;;13.97;;
71696;SDS011;59528;59.082;37.926;2023-02-14T01:16:41;22.00;;;14.50;;
71696;SDS011;59528;59.082;37.926;2023-02-14T01:19:28;21.67;;;14.60;;
71696;SDS011;59528;59.082;37.926;2023-02-14T01:22:13;21.53;;;14.83;;
71696;SDS011;59528;59.082;37.926;2023-02-14T01:24:59;23.60;;;16.77;;
71696;SDS011;59528;59.082;37.926;2023-02-14T01:27:45;24.13;;;16.13;;
71696;SDS011;59528;59.082;37.926;2023-02-14T01:30:32;22.50;;;16.20;;
71696;SDS011;59528;59.082;37.926;2023-02-14T01:33:17;25.93;;;16.87;;
71696;SDS011;59528;59.082;37.926;2023-02-14T01:36:03;22.57;;;15.00;;
71696;SDS011;59528;59.082;37.926;2023-02-14T01:38:50;22.60;;;15.20;;
71696;SDS011;59528;59.082;37.926;2023-02-14T01:41:37;21.30;;;14.67;;
71696;SDS011;59528;59.082;37.926;2023-02-14T01:47:09;21.70;;;14.40;;
71696;SDS011;59528;59.082;37.926;2023-02-14T01:50:30;23.57;;;14.83;;
71696;SDS011;59528;59.082;37.926;2023-02-14T01:53:12;22.40;;;14.90;;
71696;SDS011;59528;59.082;37.926;2023-02-14T01:56:02;21.77;;;15.07;;
71696;SDS011;59528;59.082;37.926;2023-02-14T01:58:49;23.50;;;15.33;;
71696;SDS011;59528;59.082;37.926;2023-02-14T02:01:36;23.53;;;15.10;;
71696;SDS011;59528;59.082;37.926;2023-02-14T02:04:28;24.63;;;16.13;;
71696;SDS011;59528;59.082;37.926;2023-02-14T02:07:18;24.53;;;16.53;;
71696;SDS011;59528;59.082;37.926;2023-02-14T02:10:05;26.63;;;16.87;;
71696;SDS011;59528;59.082;37.926;2023-02-14T02:12:51;28.63;;;18.27;;
71696;SDS011;59528;59.082;37.926;2023-02-14T02:15:43;28.23;;;18.13;;
71696;SDS011;59528;59.082;37.926;2023-02-14T02:38:51;29.70;;;18.00;;
71696;SDS011;59528;59.082;37.926;2023-02-14T02:48:22;28.60;;;17.27;;
71696;SDS011;59528;59.082;37.926;2023-02-14T02:50:41;29.20;;;17.10;;
71696;SDS011;59528;59.082;37.926;2023-02-14T02:53:57;25.43;;;15.90;;
71696;SDS011;59528;59.082;37.926;2023-02-14T02:56:48;24.40;;;15.20;;
71696;SDS011;59528;59.082;37.926;2023-02-14T02:59:38;23.87;;;15.10;;
71696;SDS011;59528;59.082;37.926;2023-02-14T03:02:35;25.43;;;14.73;;
71696;SDS011;59528;59.082;37.926;2023-02-14T03:05:43;24.70;;;15.10;;
71696;SDS011;59528;59.082;37.926;2023-02-14T03:08:28;23.93;;;14.97;;
71696;SDS011;59528;59.082;37.926;2023-02-14T03:11:14;24.43;;;15.33;;
71696;SDS011;59528;59.082;37.926;2023-02-14T03:16:58;25.20;;;15.43;;
71696;SDS011;59528;59.082;37.926;2023-02-14T03:20:00;24.97;;;15.13;;
71696;SDS011;59528;59.082;37.926;2023-02-14T03:25:55;28.97;;;17.80;;
71696;SDS011;59528;59.082;37.926;2023-02-14T03:31:39;31.03;;;19.17;;
71696;SDS011;59528;59.082;37.926;2023-02-14T03:34:34;32.90;;;19.57;;
71696;SDS011;59528;59.082;37.926;2023-02-14T03:37:31;30.83;;;18.80;;
71696;SDS011;59528;59.082;37.926;2023-02-14T03:43:14;32.90;;;20.17;;
71696;SDS011;59528;59.082;37.926;2023-02-14T03:48:48;34.80;;;20.17;;
71696;SDS011;59528;59.082;37.926;2023-02-14T03:51:35;32.97;;;20.37;;
71696;SDS011;59528;59.082;37.926;2023-02-14T03:54:21;34.20;;;20.80;;
71696;SDS011;59528;59.082;37.926;2023-02-14T03:57:31;34.73;;;21.00;;
71696;SDS011;59528;59.082;37.926;2023-02-14T04:00:15;32.97;;;19.93;;
71696;SDS011;59528;59.082;37.926;2023-02-14T04:03:04;28.60;;;18.53;;
71696;SDS011;59528;59.082;37.926;2023-02-14T04:05:52;30.83;;;19.17;;
71696;SDS011;59528;59.082;37.926;2023-02-14T04:08:38;30.13;;;18.77;;
71696;SDS011;59528;59.082;37.926;2023-02-14T04:11:23;29.33;;;17.83;;
71696;SDS011;59528;59.082;37.926;2023-02-14T04:14:09;30.10;;;17.57;;
71696;SDS011;59528;59.082;37.926;2023-02-14T04:16:55;30.03;;;17.20;;
71696;SDS011;59528;59.082;37.926;2023-02-14T04:19:59;27.77;;;17.43;;
71696;SDS011;59528;59.082;37.926;2023-02-14T04:22:45;28.47;;;17.53;;
71696;SDS011;59528;59.082;37.926;2023-02-14T04:25:30;35.03;;;18.07;;
71696;SDS011;59528;59.082;37.926;2023-02-14T04:28:16;31.73;;;17.10;;
71696;SDS011;59528;59.082;37.926;2023-02-14T04:31:02;35.70;;;18.27;;
71696;SDS011;59528;59.082;37.926;2023-02-14T04:33:48;38.30;;;18.57;;
71696;SDS011;59528;59.082;37.926;2023-02-14T04:36:36;40.87;;;18.83;;
71696;SDS011;59528;59.082;37.926;2023-02-14T04:39:22;37.47;;;17.93;;
71696;SDS011;59528;59.082;37.926;2023-02-14T04:42:07;29.47;;;16.67;;
71696;SDS011;59528;59.082;37.926;2023-02-14T04:44:53;32.53;;;17.33;;
71696;SDS011;59528;59.082;37.926;2023-02-14T04:47:39;33.83;;;17.23;;
71696;SDS011;59528;59.082;37.926;2023-02-14T04:50:25;30.03;;;16.53;;
71696;SDS011;59528;59.082;37.926;2023-02-14T04:53:11;30.70;;;17.07;;
71696;SDS011;59528;59.082;37.926;2023-02-14T04:55:57;29.97;;;16.97;;
71696;SDS011;59528;59.082;37.926;2023-02-14T04:58:42;29.13;;;16.17;;
71696;SDS011;59528;59.082;37.926;2023-02-14T05:01:28;32.53;;;15.80;;
71696;SDS011;59528;59.082;37.926;2023-02-14T05:04:14;26.90;;;15.43;;
71696;SDS011;59528;59.082;37.926;2023-02-14T05:06:59;27.20;;;15.23;;
71696;SDS011;59528;59.082;37.926;2023-02-14T05:09:46;26.77;;;15.47;;
71696;SDS011;59528;59.082;37.926;2023-02-14T05:12:32;25.63;;;13.77;;
71696;SDS011;59528;59.082;37.926;2023-02-14T05:15:18;21.03;;;12.80;;
71696;SDS011;59528;59.082;37.926;2023-02-14T05:18:03;22.97;;;12.37;;
71696;SDS011;59528;59.082;37.926;2023-02-14T05:20:50;21.33;;;12.87;;
71696;SDS011;59528;59.082;37.926;2023-02-14T05:23:36;22.10;;;12.27;;
71696;SDS011;59528;59.082;37.926;2023-02-14T05:26:22;20.20;;;12.13;;
71696;SDS011;59528;59.082;37.926;2023-02-14T05:29:07;18.93;;;11.77;;
71696;SDS011;59528;59.082;37.926;2023-02-14T05:31:53;21.60;;;12.13;;
71696;SDS011;59528;59.082;37.926;2023-02-14T05:34:39;20.43;;;11.73;;
71696;SDS011;59528;59.082;37.926;2023-02-14T05:37:25;19.07;;;10.87;;
71696;SDS011;59528;59.082;37.926;2023-02-14T05:40:10;18.30;;;11.03;;
71696;SDS011;59528;59.082;37.926;2023-02-14T05:42:58;16.83;;;9.87;;
71696;SDS011;59528;59.082;37.926;2023-02-14T05:45:44;16.10;;;9.93;;
71696;SDS011;59528;59.082;37.926;2023-02-14T05:48:29;14.77;;;9.23;;
71696;SDS011;59528;59.082;37.926;2023-02-14T05:51:15;14.80;;;9.80;;
71696;SDS011;59528;59.082;37.926;2023-02-14T05:54:01;14.13;;;8.97;;
71696;SDS011;59528;59.082;37.926;2023-02-14T05:56:47;16.57;;;9.23;;
71696;SDS011;59528;59.082;37.926;2023-02-14T05:59:33;12.27;;;8.07;;
71696;SDS011;59528;59.082;37.926;2023-02-14T06:02:19;13.97;;;8.10;;
71696;SDS011;59528;59.082;37.926;2023-02-14T06:05:05;13.37;;;8.00;;
71696;SDS011;59528;59.082;37.926;2023-02-14T06:07:51;12.63;;;7.70;;
71696;SDS011;59528;59.082;37.926;2023-02-14T06:10:37;12.87;;;7.07;;
71696;SDS011;59528;59.082;37.926;2023-02-14T06:13:22;11.77;;;7.00;;
71696;SDS011;59528;59.082;37.926;2023-02-14T06:16:09;11.27;;;7.07;;
71696;SDS011;59528;59.082;37.926;2023-02-14T06:18:55;10.93;;;6.73;;
71696;SDS011;59528;59.082;37.926;2023-02-14T06:21:41;13.23;;;6.83;;
71696;SDS011;59528;59.082;37.926;2023-02-14T06:24:28;11.07;;;7.03;;
71696;SDS011;59528;59.082;37.926;2023-02-14T06:27:14;11.10;;;7.57;;
71696;SDS011;59528;59.082;37.926;2023-02-14T06:29:59;12.33;;;8.03;;
71696;SDS011;59528;59.082;37.926;2023-02-14T06:32:45;14.20;;;8.10;;
71696;SDS011;59528;59.082;37.926;2023-02-14T06:35:31;11.33;;;7.10;;
71696;SDS011;59528;59.082;37.926;2023-02-14T06:38:16;12.77;;;7.37;;
71696;SDS011;59528;59.082;37.926;2023-02-14T06:41:06;13.37;;;8.27;;
71696;SDS011;59528;59.082;37.926;2023-02-14T06:43:52;13.33;;;7.50;;
71696;SDS011;59528;59.082;37.926;2023-02-14T06:46:38;13.03;;;7.60;;
71696;SDS011;59528;59.082;37.926;2023-02-14T06:49:24;11.43;;;6.93;;
71696;SDS011;59528;59.082;37.926;2023-02-14T06:52:11;11.90;;;7.33;;
71696;SDS011;59528;59.082;37.926;2023-02-14T06:54:57;9.90;;;6.23;;
71696;SDS011;59528;59.082;37.926;2023-02-14T06:57:43;10.20;;;6.63;;
71696;SDS011;59528;59.082;37.926;2023-02-14T07:00:29;8.77;;;6.00;;
71696;SDS011;59528;59.082;37.926;2023-02-14T07:03:14;10.37;;;6.20;;
71696;SDS011;59528;59.082;37.926;2023-02-14T07:06:00;10.07;;;6.03;;
71696;SDS011;59528;59.082;37.926;2023-02-14T07:08:46;9.17;;;5.30;;
71696;SDS011;59528;59.082;37.926;2023-02-14T07:11:33;9.20;;;5.73;;
71696;SDS011;59528;59.082;37.926;2023-02-14T07:14:18;8.17;;;5.43;;
71696;SDS011;59528;59.082;37.926;2023-02-14T07:17:04;9.37;;;5.43;;
71696;SDS011;59528;59.082;37.926;2023-02-14T07:19:50;9.57;;;5.00;;
71696;SDS011;59528;59.082;37.926;2023-02-14T07:22:36;7.03;;;4.93;;
71696;SDS011;59528;59.082;37.926;2023-02-14T07:25:22;7.80;;;4.73;;
71696;SDS011;59528;59.082;37.926;2023-02-14T07:28:07;6.90;;;4.90;;
71696;SDS011;59528;59.082;37.926;2023-02-14T07:30:53;8.30;;;4.70;;
71696;SDS011;59528;59.082;37.926;2023-02-14T07:33:39;6.20;;;4.30;;
71696;SDS011;59528;59.082;37.926;2023-02-14T07:36:25;7.40;;;4.50;;
71696;SDS011;59528;59.082;37.926;2023-02-14T07:39:11;6.23;;;4.37;;
71696;SDS011;59528;59.082;37.926;2023-02-14T07:41:57;5.90;;;3.83;;
71696;SDS011;59528;59.082;37.926;2023-02-14T07:44:45;5.60;;;3.90;;
71696;SDS011;59528;59.082;37.926;2023-02-14T07:47:31;6.20;;;3.73;;
71696;SDS011;59528;59.082;37.926;2023-02-14T07:50:17;5.30;;;3.67;;
71696;SDS011;59528;59.082;37.926;2023-02-14T07:53:03;5.43;;;3.87;;
71696;SDS011;59528;59.082;37.926;2023-02-14T07:55:49;5.23;;;3.33;;
71696;SDS011;59528;59.082;37.926;2023-02-14T07:58:35;6.47;;;3.77;;
71696;SDS011;59528;59.082;37.926;2023-02-14T08:01:21;4.70;;;3.07;;
71696;SDS011;59528;59.082;37.926;2023-02-14T08:04:07;5.03;;;3.47;;
71696;SDS011;59528;59.082;37.926;2023-02-14T08:06:54;5.17;;;3.30;;
71696;SDS011;59528;59.082;37.926;2023-02-14T08:09:39;4.60;;;3.23;;
71696;SDS011;59528;59.082;37.926;2023-02-14T08:12:25;5.67;;;3.30;;
71696;SDS011;59528;59.082;37.926;2023-02-14T08:15:30;4.67;;;3.07;;
71696;SDS011;59528;59.082;37.926;2023-02-14T08:18:36;5.10;;;3.20;;
71696;SDS011;59528;59.082;37.926;2023-02-14T08:21:22;4.53;;;3.23;;
71696;SDS011;59528;59.082;37.926;2023-02-14T08:24:08;5.40;;;3.17;;
71696;SDS011;59528;59.082;37.926;2023-02-14T08:26:54;4.03;;;2.70;;
71696;SDS011;59528;59.082;37.926;2023-02-14T08:29:40;4.43;;;2.87;;
71696;SDS011;59528;59.082;37.926;2023-02-14T08:32:26;4.57;;;2.70;;
71696;SDS011;59528;59.082;37.926;2023-02-14T08:35:12;4.00;;;2.90;;
71696;SDS011;59528;59.082;37.926;2023-02-14T08:37:58;3.50;;;2.40;;
71696;SDS011;59528;59.082;37.926;2023-02-14T08:40:44;4.00;;;2.50;;
71696;SDS011;59528;59.082;37.926;2023-02-14T08:43:29;4.13;;;2.83;;
71696;SDS011;59528;59.082;37.926;2023-02-14T08:46:15;4.87;;;2.70;;
71696;SDS011;59528;59.082;37.926;2023-02-14T08:49:01;4.20;;;2.37;;
71696;SDS011;59528;59.082;37.926;2023-02-14T08:51:48;3.93;;;2.40;;
71696;SDS011;59528;59.082;37.926;2023-02-14T08:54:34;5.10;;;2.70;;
71696;SDS011;59528;59.082;37.926;2023-02-14T08:57:19;4.27;;;2.37;;
71696;SDS011;59528;59.082;37.926;2023-02-14T09:00:06;3.63;;;2.20;;
71696;SDS011;59528;59.082;37.926;2023-02-14T09:02:53;5.37;;;2.37;;
71696;SDS011;59528;59.082;37.926;2023-02-14T09:05:38;4.63;;;2.20;;
71696;SDS011;59528;59.082;37.926;2023-02-14T09:08:24;3.50;;;2.23;;
71696;SDS011;59528;59.082;37.926;2023-02-14T09:11:18;3.40;;;2.40;;
71696;SDS011;59528;59.082;37.926;2023-02-14T09:14:05;3.83;;;1.97;;
71696;SDS011;59528;59.082;37.926;2023-02-14T09:16:50;3.33;;;2.10;;
71696;SDS011;59528;59.082;37.926;2023-02-14T09:19:36;3.07;;;2.03;;
71696;SDS011;59528;59.082;37.926;2023-02-14T09:22:22;2.93;;;2.03;;
71696;SDS011;59528;59.082;37.926;2023-02-14T09:25:08;4.37;;;2.30;;
71696;SDS011;59528;59.082;37.926;2023-02-14T09:27:54;3.20;;;2.00;;
71696;SDS011;59528;59.082;37.926;2023-02-14T09:30:40;2.30;;;1.70;;
71696;SDS011;59528;59.082;37.926;2023-02-14T09:33:27;3.03;;;1.87;;
71696;SDS011;59528;59.082;37.926;2023-02-14T09:36:13;2.87;;;1.77;;
71696;SDS011;59528;59.082;37.926;2023-02-14T09:39:17;2.30;;;1.70;;
71696;SDS011;59528;59.082;37.926;2023-02-14T09:42:09;2.23;;;1.50;;
71696;SDS011;59528;59.082;37.926;2023-02-14T09:45:05;2.43;;;1.63;;
71696;SDS011;59528;59.082;37.926;2023-02-14T09:48:01;2.47;;;1.60;;
71696;SDS011;59528;59.082;37.926;2023-02-14T09:50:48;2.07;;;1.40;;
71696;SDS011;59528;59.082;37.926;2023-02-14T09:53:44;2.43;;;1.60;;
71696;SDS011;59528;59.082;37.926;2023-02-14T09:59:24;1.97;;;1.50;;
71696;SDS011;59528;59.082;37.926;2023-02-14T10:11:06;1.73;;;1.30;;
71696;SDS011;59528;59.082;37.926;2023-02-14T10:14:00;5.13;;;1.63;;
71696;SDS011;59528;59.082;37.926;2023-02-14T10:16:49;2.17;;;1.43;;
71696;SDS011;59528;59.082;37.926;2023-02-14T10:19:46;2.27;;;1.50;;
71696;SDS011;59528;59.082;37.926;2023-02-14T10:22:39;2.03;;;1.30;;
71696;SDS011;59528;59.082;37.926;2023-02-14T10:25:32;2.03;;;1.43;;
71696;SDS011;59528;59.082;37.926;2023-02-14T10:28:23;1.80;;;1.37;;
71696;SDS011;59528;59.082;37.926;2023-02-14T10:34:04;1.67;;;1.37;;
71696;SDS011;59528;59.082;37.926;2023-02-14T10:37:00;2.83;;;1.60;;
71696;SDS011;59528;59.082;37.926;2023-02-14T10:51:29;1.73;;;1.30;;
71696;SDS011;59528;59.082;37.926;2023-02-14T10:54:20;2.00;;;1.30;;
71696;SDS011;59528;59.082;37.926;2023-02-14T10:57:10;2.27;;;1.27;;
71696;SDS011;59528;59.082;37.926;2023-02-14T10:59:59;2.30;;;1.43;;
71696;SDS011;59528;59.082;37.926;2023-02-14T11:02:46;2.13;;;1.20;;
71696;SDS011;59528;59.082;37.926;2023-02-14T11:05:45;1.90;;;1.20;;
71696;SDS011;59528;59.082;37.926;2023-02-14T11:08:36;1.43;;;1.10;;
71696;SDS011;59528;59.082;37.926;2023-02-14T11:11:29;1.93;;;1.30;;
71696;SDS011;59528;59.082;37.926;2023-02-14T11:23:18;1.60;;;1.07;;
71696;SDS011;59528;59.082;37.926;2023-02-14T11:26:07;1.30;;;1.00;;
71696;SDS011;59528;59.082;37.926;2023-02-14T11:28:58;1.40;;;1.03;;
71696;SDS011;59528;59.082;37.926;2023-02-14T11:31:45;1.50;;;1.13;;
71696;SDS011;59528;59.082;37.926;2023-02-14T11:40:09;1.20;;;0.97;;
71696;SDS011;59528;59.082;37.926;2023-02-14T11:46:42;1.13;;;0.90;;
71696;SDS011;59528;59.082;37.926;2023-02-14T11:49:04;1.17;;;1.07;;
71696;SDS011;59528;59.082;37.926;2023-02-14T11:51:51;2.30;;;0.93;;
71696;SDS011;59528;59.082;37.926;2023-02-14T11:54:38;2.50;;;0.90;;
71696;SDS011;59528;59.082;37.926;2023-02-14T11:57:34;1.30;;;0.80;;
71696;SDS011;59528;59.082;37.926;2023-02-14T12:00:22;1.00;;;0.80;;
71696;SDS011;59528;59.082;37.926;2023-02-14T12:03:14;1.30;;;0.80;;
71696;SDS011;59528;59.082;37.926;2023-02-14T12:06:03;1.10;;;0.80;;
71696;SDS011;59528;59.082;37.926;2023-02-14T12:08:49;1.10;;;0.80;;
71696;SDS011;59528;59.082;37.926;2023-02-14T12:11:35;1.50;;;0.80;;
71696;SDS011;59528;59.082;37.926;2023-02-14T12:14:22;1.40;;;0.90;;
71696;SDS011;59528;59.082;37.926;2023-02-14T12:20:03;1.70;;;0.90;;
71696;SDS011;59528;59.082;37.926;2023-02-14T12:23:00;1.50;;;0.80;;
71696;SDS011;59528;59.082;37.926;2023-02-14T12:31:58;1.57;;;1.00;;
71696;SDS011;59528;59.082;37.926;2023-02-14T12:34:45;2.70;;;1.23;;
71696;SDS011;59528;59.082;37.926;2023-02-14T12:37:38;1.60;;;0.80;;
71696;SDS011;59528;59.082;37.926;2023-02-14T12:58:55;2.13;;;1.07;;
71696;SDS011;59528;59.082;37.926;2023-02-14T13:10:04;1.10;;;0.80;;
71696;SDS011;59528;59.082;37.926;2023-02-14T13:21:44;3.77;;;1.10;;
71696;SDS011;59528;59.082;37.926;2023-02-14T13:24:42;1.73;;;0.90;;
71696;SDS011;59528;59.082;37.926;2023-02-14T13:27:33;1.77;;;1.00;;
71696;SDS011;59528;59.082;37.926;2023-02-14T13:30:26;1.60;;;0.90;;
71696;SDS011;59528;59.082;37.926;2023-02-14T13:33:20;1.90;;;1.10;;
71696;SDS011;59528;59.082;37.926;2023-02-14T13:36:09;1.53;;;0.87;;
71696;SDS011;59528;59.082;37.926;2023-02-14T13:38:55;1.83;;;1.00;;
71696;SDS011;59528;59.082;37.926;2023-02-14T13:41:43;1.77;;;0.80;;
71696;SDS011;59528;59.082;37.926;2023-02-14T13:44:40;1.70;;;0.87;;
71696;SDS011;59528;59.082;37.926;2023-02-14T13:47:26;1.80;;;1.00;;
71696;SDS011;59528;59.082;37.926;2023-02-14T13:50:19;1.20;;;0.90;;
71696;SDS011;59528;59.082;37.926;2023-02-14T13:53:27;2.33;;;0.93;;
71696;SDS011;59528;59.082;37.926;2023-02-14T13:58:57;1.90;;;0.80;;
71696;SDS011;59528;59.082;37.926;2023-02-14T14:01:45;1.10;;;0.67;;
71696;SDS011;59528;59.082;37.926;2023-02-14T14:04:35;1.30;;;0.80;;
71696;SDS011;59528;59.082;37.926;2023-02-14T14:07:26;1.60;;;0.80;;
71696;SDS011;59528;59.082;37.926;2023-02-14T14:10:15;0.97;;;0.70;;
71696;SDS011;59528;59.082;37.926;2023-02-14T14:22:08;2.13;;;1.00;;
71696;SDS011;59528;59.082;37.926;2023-02-14T14:27:44;2.90;;;1.00;;
71696;SDS011;59528;59.082;37.926;2023-02-14T14:30:30;1.33;;;0.90;;
71696;SDS011;59528;59.082;37.926;2023-02-14T14:36:19;1.23;;;0.60;;
71696;SDS011;59528;59.082;37.926;2023-02-14T14:39:07;1.57;;;0.90;;
71696;SDS011;59528;59.082;37.926;2023-02-14T14:41:54;1.43;;;0.80;;
71696;SDS011;59528;59.082;37.926;2023-02-14T14:44:44;1.80;;;0.80;;
71696;SDS011;59528;59.082;37.926;2023-02-14T14:47:33;1.37;;;0.70;;
71696;SDS011;59528;59.082;37.926;2023-02-14T14:50:26;1.50;;;1.03;;
71696;SDS011;59528;59.082;37.926;2023-02-14T14:53:46;1.43;;;0.80;;
71696;SDS011;59528;59.082;37.926;2023-02-14T14:56:27;2.00;;;0.90;;
71696;SDS011;59528;59.082;37.926;2023-02-14T15:02:02;1.87;;;0.80;;
71696;SDS011;59528;59.082;37.926;2023-02-14T15:04:48;2.30;;;0.87;;
71696;SDS011;59528;59.082;37.926;2023-02-14T15:07:34;1.77;;;0.80;;
71696;SDS011;59528;59.082;37.926;2023-02-14T15:10:29;1.37;;;0.90;;
71696;SDS011;59528;59.082;37.926;2023-02-14T15:13:15;2.13;;;0.80;;
71696;SDS011;59528;59.082;37.926;2023-02-14T15:16:27;1.57;;;0.77;;
71696;SDS011;59528;59.082;37.926;2023-02-14T15:19:21;1.60;;;0.90;;
71696;SDS011;59528;59.082;37.926;2023-02-14T15:25:18;2.70;;;1.00;;
71696;SDS011;59528;59.082;37.926;2023-02-14T15:28:04;2.53;;;0.80;;
71696;SDS011;59528;59.082;37.926;2023-02-14T15:30:54;2.57;;;0.93;;
71696;SDS011;59528;59.082;37.926;2023-02-14T15:33:40;1.57;;;0.87;;
71696;SDS011;59528;59.082;37.926;2023-02-14T15:36:25;2.83;;;0.97;;
71696;SDS011;59528;59.082;37.926;2023-02-14T15:39:12;1.77;;;0.90;;
71696;SDS011;59528;59.082;37.926;2023-02-14T15:42:00;2.00;;;0.87;;
71696;SDS011;59528;59.082;37.926;2023-02-14T15:44:46;1.03;;;0.53;;
71696;SDS011;59528;59.082;37.926;2023-02-14T15:47:32;2.47;;;1.13;;
71696;SDS011;59528;59.082;37.926;2023-02-14T15:50:19;1.47;;;0.70;;
71696;SDS011;59528;59.082;37.926;2023-02-14T15:53:19;2.00;;;0.90;;
71696;SDS011;59528;59.082;37.926;2023-02-14T15:59:18;1.90;;;0.80;;
71696;SDS011;59528;59.082;37.926;2023-02-14T16:02:25;2.30;;;0.80;;
71696;SDS011;59528;59.082;37.926;2023-02-14T16:05:22;2.17;;;1.00;;
71696;SDS011;59528;59.082;37.926;2023-02-14T16:08:25;1.90;;;0.73;;
71696;SDS011;59528;59.082;37.926;2023-02-14T16:11:25;4.10;;;1.20;;
71696;SDS011;59528;59.082;37.926;2023-02-14T16:14:19;3.07;;;1.10;;
71696;SDS011;59528;59.082;37.926;2023-02-14T16:17:06;3.60;;;1.50;;
71696;SDS011;59528;59.082;37.926;2023-02-14T16:19:55;5.13;;;2.13;;
71696;SDS011;59528;59.082;37.926;2023-02-14T16:22:40;11.43;;;4.87;;
71696;SDS011;59528;59.082;37.926;2023-02-14T16:25:26;23.10;;;10.27;;
71696;SDS011;59528;59.082;37.926;2023-02-14T16:28:13;23.53;;;12.07;;
71696;SDS011;59528;59.082;37.926;2023-02-14T16:31:29;52.13;;;23.80;;
71696;SDS011;59528;59.082;37.926;2023-02-14T16:34:15;43.33;;;21.00;;
